createdAt,value
2023-05-15T00:00:22.279Z,5.53
2023-05-15T00:02:49.615Z,6.23
2023-05-15T00:05:16.931Z,6.20
2023-05-15T00:07:44.301Z,6.20
2023-05-15T00:10:11.578Z,5.60
2023-05-15T00:12:38.926Z,5.20
2023-05-15T00:15:08.404Z,6.07
2023-05-15T00:17:35.637Z,6.07
2023-05-15T00:20:04.423Z,6.00
2023-05-15T00:22:31.725Z,5.87
2023-05-15T00:24:59.194Z,5.30
2023-05-15T00:27:27.298Z,5.97
2023-05-15T00:29:54.563Z,6.20
2023-05-15T00:32:22.567Z,6.00
2023-05-15T00:34:50.443Z,5.67
2023-05-15T00:37:17.704Z,5.70
2023-05-15T00:39:45.364Z,5.90
2023-05-15T00:42:13.128Z,5.63
2023-05-15T00:44:41.138Z,6.20
2023-05-15T00:47:10.191Z,6.03
2023-05-15T00:49:38.573Z,5.63
2023-05-15T00:52:08.011Z,7.70
2023-05-15T00:54:35.346Z,6.07
2023-05-15T00:57:05.412Z,6.93
2023-05-15T00:59:33.418Z,7.20
2023-05-15T01:02:00.810Z,5.70
2023-05-15T01:04:28.562Z,6.50
2023-05-15T01:06:56.651Z,5.80
2023-05-15T01:09:25.158Z,6.80
2023-05-15T01:11:57.103Z,6.97
2023-05-15T01:14:24.351Z,6.50
2023-05-15T01:16:51.634Z,6.50
2023-05-15T01:19:19.127Z,6.47
2023-05-15T01:22:31.389Z,6.70
2023-05-15T01:25:40.691Z,7.20
2023-05-15T01:28:11.741Z,6.30
2023-05-15T01:30:42.480Z,6.43
2023-05-15T01:33:17.539Z,7.50
2023-05-15T01:35:49.259Z,6.87
2023-05-15T01:38:21.676Z,6.90
2023-05-15T01:40:51.652Z,6.40
2023-05-15T01:43:24.167Z,6.43
2023-05-15T01:45:51.501Z,6.13
2023-05-15T01:48:20.819Z,6.53
2023-05-15T01:50:50.804Z,6.60
2023-05-15T01:53:19.807Z,7.47
2023-05-15T01:55:48.448Z,6.33
2023-05-15T01:58:17.100Z,7.33
2023-05-15T02:00:46.333Z,6.80
2023-05-15T02:03:14.065Z,7.00
2023-05-15T02:05:41.625Z,6.20
2023-05-15T02:08:10.827Z,6.77
2023-05-15T02:10:38.516Z,5.80
2023-05-15T02:13:07.195Z,7.00
2023-05-15T02:15:35.611Z,6.80
2023-05-15T02:18:03.992Z,6.23
2023-05-15T02:20:31.397Z,6.83
2023-05-15T02:22:58.828Z,6.40
2023-05-15T02:25:34.365Z,7.67
2023-05-15T02:28:03.803Z,8.07
2023-05-15T02:30:37.390Z,7.17
2023-05-15T02:33:14.662Z,8.13
2023-05-15T02:35:48.134Z,7.80
2023-05-15T02:38:19.269Z,7.50
2023-05-15T02:40:49.329Z,7.33
2023-05-15T02:43:19.494Z,7.20
2023-05-15T02:45:48.215Z,7.80
2023-05-15T02:48:16.792Z,8.90
2023-05-15T02:50:44.529Z,8.33
2023-05-15T02:53:13.685Z,8.23
2023-05-15T02:55:41.001Z,7.83
2023-05-15T02:58:08.961Z,7.70
2023-05-15T03:00:36.420Z,8.97
2023-05-15T03:03:04.324Z,8.57
2023-05-15T03:05:32.304Z,8.97
2023-05-15T03:07:59.907Z,9.50
2023-05-15T03:10:27.201Z,8.03
2023-05-15T03:12:57.512Z,9.13
2023-05-15T03:15:25.072Z,9.73
2023-05-15T03:17:52.626Z,8.70
2023-05-15T03:20:19.969Z,9.30
2023-05-15T03:22:47.906Z,8.10
2023-05-15T03:25:15.593Z,9.40
2023-05-15T03:27:42.942Z,8.20
2023-05-15T03:30:10.743Z,8.97
2023-05-15T03:32:38.088Z,9.23
2023-05-15T03:35:06.004Z,10.60
2023-05-15T03:37:33.421Z,9.47
2023-05-15T03:40:01.387Z,8.63
2023-05-15T03:42:28.678Z,9.33
2023-05-15T03:44:55.976Z,9.03
2023-05-15T03:47:23.384Z,8.90
2023-05-15T03:49:50.720Z,9.03
2023-05-15T03:52:18.092Z,8.67
2023-05-15T03:54:45.414Z,9.20
2023-05-15T03:57:13.535Z,8.70
2023-05-15T03:59:40.925Z,8.87
2023-05-15T04:02:08.270Z,8.40
2023-05-15T04:04:35.636Z,8.47
2023-05-15T04:07:03.263Z,9.40
2023-05-15T04:09:30.569Z,9.50
2023-05-15T04:11:57.843Z,9.20
2023-05-15T04:14:25.880Z,9.70
2023-05-15T04:16:53.249Z,10.27
2023-05-15T04:19:20.621Z,11.40
2023-05-15T04:21:47.904Z,10.83
2023-05-15T04:24:15.221Z,9.83
2023-05-15T04:26:42.616Z,10.43
2023-05-15T04:29:09.913Z,12.10
2023-05-15T04:31:38.128Z,11.10
2023-05-15T04:34:05.413Z,11.80
2023-05-15T04:36:33.367Z,12.20
2023-05-15T04:39:00.758Z,10.33
2023-05-15T04:41:28.085Z,12.60
2023-05-15T04:43:55.818Z,12.20
2023-05-15T04:46:23.230Z,10.90
2023-05-15T04:48:51.533Z,11.33
2023-05-15T04:51:18.849Z,14.03
2023-05-15T04:53:46.235Z,12.23
2023-05-15T04:56:13.603Z,12.30
2023-05-15T04:58:40.953Z,11.57
2023-05-15T05:01:08.358Z,12.83
2023-05-15T05:03:35.916Z,12.50
2023-05-15T05:06:04.245Z,13.27
2023-05-15T05:08:31.567Z,12.90
2023-05-15T05:10:58.924Z,13.57
2023-05-15T05:13:26.291Z,12.03
2023-05-15T05:15:53.742Z,12.83
2023-05-15T05:18:21.052Z,12.40
2023-05-15T05:20:49.019Z,11.73
2023-05-15T05:23:17.608Z,12.87
2023-05-15T05:25:45.056Z,13.00
2023-05-15T05:28:12.360Z,13.03
2023-05-15T05:30:39.882Z,13.30
2023-05-15T05:33:07.289Z,12.43
2023-05-15T05:35:34.592Z,13.07
2023-05-15T05:38:02.100Z,13.10
2023-05-15T05:40:30.251Z,25.23
2023-05-15T05:43:00.052Z,16.00
2023-05-15T05:45:27.704Z,18.10
2023-05-15T05:47:56.398Z,20.87
2023-05-15T05:50:23.849Z,20.37
2023-05-15T05:52:51.236Z,14.00
2023-05-15T05:55:18.774Z,12.43
2023-05-15T05:57:46.885Z,12.97
2023-05-15T06:00:15.293Z,11.17
2023-05-15T06:02:43.084Z,11.73
2023-05-15T06:05:10.822Z,13.33
2023-05-15T06:07:38.218Z,11.43
2023-05-15T06:10:08.831Z,11.30
2023-05-15T06:12:36.737Z,11.60
2023-05-15T06:15:06.260Z,11.43
2023-05-15T06:17:33.640Z,11.03
2023-05-15T06:20:01.120Z,11.17
2023-05-15T06:22:28.453Z,10.13
2023-05-15T06:24:55.747Z,10.67
2023-05-15T06:27:25.785Z,9.73
2023-05-15T06:29:53.262Z,9.83
2023-05-15T06:32:21.559Z,11.03
2023-05-15T06:34:48.927Z,10.20
2023-05-15T06:37:16.236Z,10.03
2023-05-15T06:39:43.952Z,10.60
2023-05-15T06:42:11.440Z,10.60
2023-05-15T06:44:38.993Z,11.03
2023-05-15T06:47:06.808Z,9.50
2023-05-15T06:49:35.134Z,8.30
2023-05-15T06:52:02.599Z,8.80
2023-05-15T06:54:30.002Z,8.60
2023-05-15T06:56:57.549Z,8.20
2023-05-15T06:59:25.477Z,8.97
2023-05-15T07:01:53.013Z,8.67
2023-05-15T07:04:20.346Z,45.77
2023-05-15T07:06:48.514Z,8.10
2023-05-15T07:09:15.897Z,9.50
2023-05-15T07:11:43.202Z,7.27
2023-05-15T07:14:10.665Z,7.40
2023-05-15T07:16:37.965Z,9.00
2023-05-15T07:19:05.372Z,8.50
2023-05-15T07:21:32.750Z,8.63
2023-05-15T07:24:00.934Z,8.40
2023-05-15T07:26:36.297Z,7.90
2023-05-15T07:29:08.640Z,8.83
2023-05-15T07:31:37.764Z,7.80
2023-05-15T07:34:05.154Z,7.77
2023-05-15T07:36:32.492Z,7.60
2023-05-15T07:39:00.709Z,8.03
2023-05-15T07:41:30.211Z,7.60
2023-05-15T07:43:57.551Z,9.10
2023-05-15T07:46:25.414Z,9.00
2023-05-15T07:48:52.744Z,9.00
2023-05-15T07:51:20.026Z,9.57
2023-05-15T07:53:47.431Z,9.43
2023-05-15T07:56:16.108Z,9.03
2023-05-15T07:58:43.566Z,9.43
2023-05-15T08:01:10.997Z,8.37
2023-05-15T08:03:38.417Z,9.77
2023-05-15T08:06:07.469Z,9.03
2023-05-15T08:08:34.845Z,9.43
2023-05-15T08:11:02.401Z,10.20
2023-05-15T08:13:30.548Z,10.90
2023-05-15T08:15:58.140Z,10.57
2023-05-15T08:18:25.588Z,10.73
2023-05-15T08:20:53.331Z,11.03
2023-05-15T08:23:20.966Z,10.70
2023-05-15T08:25:48.646Z,11.40
2023-05-15T08:28:16.960Z,10.83
2023-05-15T08:30:45.778Z,10.53
2023-05-15T08:33:13.216Z,10.60
2023-05-15T08:35:40.876Z,10.87
2023-05-15T08:38:08.399Z,9.83
2023-05-15T08:40:39.950Z,11.00
2023-05-15T08:43:14.998Z,9.97
2023-05-15T08:45:42.630Z,11.83
2023-05-15T08:48:13.849Z,11.23
2023-05-15T08:50:44.251Z,11.53
2023-05-15T08:53:13.874Z,10.43
2023-05-15T08:55:42.098Z,11.03
2023-05-15T08:58:10.084Z,10.83
2023-05-15T09:00:38.086Z,11.57
2023-05-15T09:03:05.975Z,12.40
2023-05-15T09:05:35.653Z,10.73
2023-05-15T09:08:06.548Z,11.10
2023-05-15T09:10:35.580Z,11.33
2023-05-15T09:13:03.790Z,9.80
2023-05-15T09:15:32.847Z,11.70
2023-05-15T09:18:01.377Z,11.47
2023-05-15T09:20:30.245Z,11.70
2023-05-15T09:22:59.421Z,10.93
2023-05-15T09:25:37.939Z,11.50
2023-05-15T09:28:05.591Z,10.73
2023-05-15T09:30:33.968Z,10.03
2023-05-15T09:33:02.935Z,11.20
2023-05-15T09:35:34.119Z,10.90
2023-05-15T09:38:03.360Z,10.50
2023-05-15T09:40:31.813Z,10.13
2023-05-15T09:42:59.355Z,11.83
2023-05-15T09:45:29.148Z,9.70
2023-05-15T09:47:56.993Z,9.17
2023-05-15T09:50:33.376Z,9.30
2023-05-15T09:53:01.625Z,10.63
2023-05-15T09:55:31.636Z,9.90
2023-05-15T09:58:10.549Z,9.70
2023-05-15T10:00:47.822Z,8.17
2023-05-15T10:03:19.065Z,7.40
2023-05-15T10:05:46.467Z,7.93
2023-05-15T10:08:15.076Z,7.47
2023-05-15T10:10:42.995Z,9.53
2023-05-15T10:13:10.809Z,7.33
2023-05-15T10:15:39.158Z,8.53
2023-05-15T10:18:07.458Z,8.87
2023-05-15T10:20:35.220Z,7.17
2023-05-15T10:23:05.383Z,8.90
2023-05-15T10:25:41.885Z,8.00
2023-05-15T10:28:10.675Z,6.60
2023-05-15T10:30:38.602Z,7.00
2023-05-15T10:33:06.906Z,8.37
2023-05-15T10:35:35.579Z,7.80
2023-05-15T10:38:05.692Z,6.40
2023-05-15T10:40:36.335Z,8.13
2023-05-15T10:43:04.967Z,9.07
2023-05-15T10:45:33.383Z,7.40
2023-05-15T10:48:01.880Z,8.03
2023-05-15T10:50:29.820Z,8.50
2023-05-15T10:52:57.182Z,8.13
2023-05-15T10:55:24.669Z,9.00
2023-05-15T10:57:54.242Z,8.67
2023-05-15T11:00:30.599Z,9.60
2023-05-15T11:02:58.557Z,8.80
2023-05-15T11:05:26.268Z,10.80
2023-05-15T11:08:25.487Z,9.70
2023-05-15T11:10:53.043Z,8.70
2023-05-15T11:13:21.187Z,7.90
2023-05-15T11:15:49.017Z,8.80
2023-05-15T11:18:17.151Z,8.17
2023-05-15T11:21:07.567Z,7.50
2023-05-15T11:23:40.203Z,8.40
2023-05-15T11:26:07.535Z,8.83
2023-05-15T11:28:46.754Z,9.23
2023-05-15T11:31:14.913Z,9.60
2023-05-15T11:33:42.321Z,8.63
2023-05-15T11:36:10.116Z,8.77
2023-05-15T11:38:39.466Z,10.73
2023-05-15T11:41:19.394Z,9.73
2023-05-15T11:43:48.960Z,9.00
2023-05-15T11:46:17.213Z,10.63
2023-05-15T11:48:46.971Z,9.53
2023-05-15T11:51:18.157Z,9.03
2023-05-15T11:53:45.874Z,9.23
2023-05-15T11:56:20.981Z,8.40
2023-05-15T11:58:54.293Z,7.63
2023-05-15T12:01:21.824Z,8.47
2023-05-15T12:03:50.320Z,8.23
2023-05-15T12:06:18.106Z,7.77
2023-05-15T12:08:50.698Z,8.60
2023-05-15T12:11:21.644Z,6.70
2023-05-15T12:13:53.304Z,6.83
2023-05-15T12:16:24.731Z,6.50
2023-05-15T12:18:52.500Z,6.83
2023-05-15T12:21:20.281Z,6.57
2023-05-15T12:24:03.476Z,6.20
2023-05-15T12:26:35.349Z,6.67
2023-05-15T12:29:04.083Z,6.90
2023-05-15T12:31:31.572Z,5.50
2023-05-15T12:33:58.996Z,6.07
2023-05-15T12:36:29.488Z,6.03
2023-05-15T12:38:56.815Z,5.80
2023-05-15T12:41:28.417Z,5.30
2023-05-15T12:43:55.901Z,5.57
2023-05-15T12:46:25.160Z,6.27
2023-05-15T12:48:52.507Z,5.20
2023-05-15T12:51:22.123Z,6.07
2023-05-15T12:53:52.015Z,6.50
2023-05-15T12:56:19.426Z,6.67
2023-05-15T12:58:48.254Z,7.60
2023-05-15T13:01:15.811Z,7.90
2023-05-15T13:03:44.724Z,7.40
2023-05-15T13:06:12.385Z,7.07
2023-05-15T13:08:41.154Z,7.93
2023-05-15T13:11:13.068Z,8.00
2023-05-15T13:13:45.047Z,7.73
2023-05-15T13:16:20.179Z,7.30
2023-05-15T13:18:48.336Z,8.80
2023-05-15T13:21:16.134Z,7.57
2023-05-15T13:23:44.136Z,8.30
2023-05-15T13:26:11.418Z,7.30
2023-05-15T13:28:38.828Z,8.77
2023-05-15T13:31:06.219Z,7.90
2023-05-15T13:33:35.265Z,8.23
2023-05-15T13:36:03.728Z,7.00
2023-05-15T13:38:32.785Z,7.67
2023-05-15T13:41:00.158Z,7.40
2023-05-15T13:43:27.736Z,6.50
2023-05-15T13:45:55.250Z,6.43
2023-05-15T13:48:22.651Z,7.73
2023-05-15T13:50:50.437Z,6.73
2023-05-15T13:53:18.520Z,5.20
2023-05-15T13:55:46.203Z,5.60
2023-05-15T13:58:13.904Z,5.73
2023-05-15T14:00:43.566Z,4.93
2023-05-15T14:03:13.440Z,7.20
2023-05-15T14:05:42.532Z,5.70
2023-05-15T14:08:10.382Z,10.00
2023-05-15T14:10:38.605Z,7.63
2023-05-15T14:13:06.145Z,8.13
2023-05-15T14:15:33.476Z,7.80
2023-05-15T14:18:00.811Z,8.43
2023-05-15T14:20:28.384Z,7.30
2023-05-15T14:22:55.921Z,7.93
2023-05-15T14:25:23.707Z,6.90
2023-05-15T14:27:51.849Z,5.70
2023-05-15T14:30:19.328Z,6.40
2023-05-15T14:32:46.687Z,5.97
2023-05-15T14:35:14.844Z,6.97
2023-05-15T14:37:43.283Z,6.00
2023-05-15T14:40:11.648Z,5.80
2023-05-15T14:42:39.823Z,5.63
2023-05-15T14:45:08.982Z,5.27
2023-05-15T14:47:36.469Z,6.10
2023-05-15T14:50:04.240Z,5.83
2023-05-15T14:52:31.643Z,5.00
2023-05-15T14:55:08.727Z,4.93
2023-05-15T14:57:38.942Z,4.93
2023-05-15T15:00:12.938Z,5.47
2023-05-15T15:02:40.392Z,6.27
2023-05-15T15:05:08.738Z,6.20
2023-05-15T15:07:58.049Z,6.13
2023-05-15T15:10:26.834Z,5.60
2023-05-15T15:12:55.359Z,6.07
2023-05-15T15:15:24.721Z,6.30
2023-05-15T15:17:52.996Z,5.30
2023-05-15T15:20:21.356Z,6.70
2023-05-15T15:22:50.536Z,5.90
2023-05-15T15:25:18.109Z,7.00
2023-05-15T15:27:46.138Z,6.40
2023-05-15T15:30:14.670Z,6.37
2023-05-15T15:32:44.062Z,6.13
2023-05-15T15:35:12.177Z,6.00
2023-05-15T15:37:39.976Z,6.00
2023-05-15T15:40:11.651Z,5.40
2023-05-15T15:42:44.878Z,5.23
2023-05-15T15:45:12.498Z,6.57
2023-05-15T15:47:39.903Z,5.60
2023-05-15T15:50:08.777Z,6.53
2023-05-15T15:52:36.154Z,7.13
2023-05-15T15:55:03.846Z,5.40
2023-05-15T15:57:32.751Z,6.33
2023-05-15T16:00:00.219Z,6.20
2023-05-15T16:02:28.109Z,5.70
2023-05-15T16:04:55.504Z,5.93
2023-05-15T16:07:23.516Z,6.27
2023-05-15T16:10:00.522Z,7.63
2023-05-15T16:12:38.321Z,7.43
2023-05-15T16:15:21.006Z,7.70
2023-05-15T16:17:52.834Z,6.73
2023-05-15T16:20:21.358Z,6.50
2023-05-15T16:22:49.382Z,6.60
2023-05-15T16:25:16.771Z,6.37
2023-05-15T16:27:44.226Z,6.60
2023-05-15T16:30:12.772Z,7.70
2023-05-15T16:32:40.260Z,6.27
2023-05-15T16:35:08.498Z,8.63
2023-05-15T16:37:35.970Z,8.17
2023-05-15T16:40:04.553Z,9.40
2023-05-15T16:42:36.308Z,8.27
2023-05-15T16:45:04.319Z,8.03
2023-05-15T16:47:31.756Z,9.30
2023-05-15T16:49:59.248Z,8.80
2023-05-15T16:52:26.605Z,8.80
2023-05-15T16:54:53.944Z,9.13
2023-05-15T16:57:21.957Z,10.03
2023-05-15T16:59:49.338Z,9.57
2023-05-15T17:02:16.723Z,9.83
2023-05-15T17:04:44.226Z,9.40
2023-05-15T17:07:11.553Z,9.80
2023-05-15T17:09:39.949Z,10.40
2023-05-15T17:12:07.726Z,10.50
2023-05-15T17:14:35.736Z,10.50
2023-05-15T17:17:03.124Z,10.40
2023-05-15T17:19:32.158Z,12.53
2023-05-15T17:21:59.519Z,10.87
2023-05-15T17:24:32.852Z,9.43
2023-05-15T17:27:06.634Z,11.00
2023-05-15T17:29:34.683Z,11.40
2023-05-15T17:32:02.387Z,10.10
2023-05-15T17:34:29.744Z,10.40
2023-05-15T17:36:57.178Z,8.80
2023-05-15T17:39:24.466Z,6.93
2023-05-15T17:41:51.817Z,7.67
2023-05-15T17:44:19.115Z,6.83
2023-05-15T17:46:47.205Z,12.93
2023-05-15T17:49:14.801Z,9.67
2023-05-15T17:51:42.292Z,9.87
2023-05-15T17:54:09.600Z,8.60
2023-05-15T17:56:36.990Z,10.83
2023-05-15T17:59:04.268Z,9.17
2023-05-15T18:01:31.579Z,6.90
2023-05-15T18:03:59.710Z,7.73
2023-05-15T18:06:27.554Z,6.30
2023-05-15T18:08:54.904Z,7.87
2023-05-15T18:11:22.956Z,8.60
2023-05-15T18:13:50.422Z,8.30
2023-05-15T18:16:17.730Z,8.90
2023-05-15T18:18:46.535Z,7.77
2023-05-15T18:21:14.776Z,8.23
2023-05-15T18:23:42.122Z,8.60
2023-05-15T18:26:09.736Z,8.47
2023-05-15T18:28:37.117Z,8.70
2023-05-15T18:31:04.454Z,9.50
2023-05-15T18:33:32.220Z,11.07
2023-05-15T18:35:59.505Z,10.57
2023-05-15T18:38:27.854Z,10.50
2023-05-15T18:40:55.166Z,13.73
2023-05-15T18:43:22.417Z,13.20
2023-05-15T18:45:49.811Z,13.33
2023-05-15T18:48:17.388Z,10.37
2023-05-15T18:50:44.751Z,9.87
2023-05-15T18:53:12.137Z,9.03
2023-05-15T18:55:40.163Z,9.70
2023-05-15T18:58:08.014Z,9.13
2023-05-15T19:00:43.630Z,9.53
2023-05-15T19:03:11.186Z,10.17
2023-05-15T19:05:38.768Z,10.13
2023-05-15T19:08:06.440Z,10.17
2023-05-15T19:10:33.794Z,9.33
2023-05-15T19:13:01.764Z,8.73
2023-05-15T19:15:29.063Z,9.83
2023-05-15T19:17:56.429Z,10.80
2023-05-15T19:20:26.445Z,11.87
2023-05-15T19:22:54.661Z,11.40
2023-05-15T19:25:24.644Z,10.10
2023-05-15T19:27:52.024Z,11.67
2023-05-15T19:30:20.435Z,11.03
2023-05-15T19:32:47.798Z,11.57
2023-05-15T19:35:15.453Z,11.23
2023-05-15T19:37:42.771Z,10.80
2023-05-15T19:40:10.738Z,10.97
2023-05-15T19:42:38.265Z,10.70
2023-05-15T19:45:07.406Z,9.90
2023-05-15T19:47:35.504Z,10.87
2023-05-15T19:50:03.043Z,9.67
2023-05-15T19:52:30.457Z,11.30
2023-05-15T19:54:57.723Z,10.87
2023-05-15T19:57:25.596Z,10.20
2023-05-15T19:59:53.332Z,9.87
2023-05-15T20:02:20.735Z,9.67
2023-05-15T20:04:49.362Z,10.47
2023-05-15T20:07:17.067Z,11.20
2023-05-15T20:09:44.545Z,10.67
2023-05-15T20:12:12.088Z,10.67
2023-05-15T20:14:40.265Z,10.47
2023-05-15T20:17:08.550Z,11.37
2023-05-15T20:19:36.507Z,11.73
2023-05-15T20:22:04.892Z,12.40
2023-05-15T20:24:32.495Z,10.73
2023-05-15T20:26:59.898Z,12.07
2023-05-15T20:29:27.871Z,12.43
2023-05-15T20:31:55.288Z,12.07
2023-05-15T20:34:22.754Z,12.40
2023-05-15T20:36:52.251Z,11.53
2023-05-15T20:39:20.747Z,12.10
2023-05-15T20:41:48.241Z,11.50
2023-05-15T20:44:15.981Z,10.47
2023-05-15T20:46:44.281Z,11.63
2023-05-15T20:49:11.889Z,11.00
2023-05-15T20:51:40.999Z,11.20
2023-05-15T20:54:08.494Z,11.37
2023-05-15T20:56:36.577Z,12.30
2023-05-15T20:59:03.927Z,10.93
2023-05-15T21:01:31.348Z,12.33
2023-05-15T21:03:58.776Z,13.10
2023-05-15T21:06:26.193Z,12.47
2023-05-15T21:08:53.556Z,11.80
2023-05-15T21:11:21.031Z,11.97
2023-05-15T21:13:49.127Z,13.13
2023-05-15T21:16:16.454Z,14.20
2023-05-15T21:18:43.874Z,12.00
2023-05-15T21:21:11.218Z,12.33
2023-05-15T21:23:38.702Z,13.40
2023-05-15T21:26:06.208Z,12.80
2023-05-15T21:28:34.029Z,13.40
2023-05-15T21:31:07.120Z,13.43
2023-05-15T21:33:35.166Z,12.00
2023-05-15T21:36:02.743Z,14.50
2023-05-15T21:38:30.427Z,13.90
2023-05-15T21:40:58.831Z,13.63
2023-05-15T21:43:26.282Z,12.93
2023-05-15T21:45:55.312Z,14.20
2023-05-15T21:48:23.392Z,14.20
2023-05-15T21:50:50.923Z,13.40
2023-05-15T21:53:18.328Z,13.40
2023-05-15T21:55:47.556Z,14.57
2023-05-15T21:58:15.072Z,13.40
2023-05-15T22:00:42.373Z,12.70
2023-05-15T22:03:09.738Z,12.70
2023-05-15T22:05:37.756Z,13.30
2023-05-15T22:08:05.254Z,11.63
2023-05-15T22:10:32.542Z,12.33
2023-05-15T22:13:02.118Z,12.90
2023-05-15T22:15:29.460Z,12.37
2023-05-15T22:17:58.578Z,12.43
2023-05-15T22:20:26.254Z,11.80
2023-05-15T22:22:54.622Z,12.07
2023-05-15T22:25:21.963Z,12.40
2023-05-15T22:27:49.463Z,13.17
2023-05-15T22:30:17.033Z,12.10
2023-05-15T22:32:44.633Z,12.70
2023-05-15T22:35:12.804Z,13.53
2023-05-15T22:37:41.351Z,13.27
2023-05-15T22:40:11.114Z,13.07
2023-05-15T22:42:38.533Z,13.47
2023-05-15T22:45:06.968Z,13.60
2023-05-15T22:47:34.376Z,14.60
2023-05-15T22:50:02.099Z,13.20
2023-05-15T22:52:29.448Z,13.90
2023-05-15T22:54:56.828Z,13.30
2023-05-15T22:57:26.204Z,12.80
2023-05-15T22:59:54.280Z,13.67
2023-05-15T23:02:21.609Z,14.20
2023-05-15T23:09:27.197Z,13.40
2023-05-15T23:11:54.701Z,11.43
2023-05-15T23:14:23.511Z,13.77
2023-05-15T23:16:51.563Z,11.60
2023-05-15T23:19:19.414Z,12.67
2023-05-15T23:21:47.061Z,13.47
2023-05-15T23:24:14.486Z,12.63
2023-05-15T23:26:42.096Z,12.20
2023-05-15T23:29:09.581Z,12.70
2023-05-15T23:31:38.334Z,12.50
2023-05-15T23:35:13.702Z,13.33
2023-05-15T23:37:41.821Z,12.50
2023-05-15T23:40:10.180Z,12.10
2023-05-15T23:42:37.526Z,13.33
2023-05-15T23:45:05.868Z,13.20
2023-05-15T23:47:33.979Z,14.73
2023-05-15T23:50:01.440Z,12.23
2023-05-15T23:52:28.960Z,13.03
2023-05-15T23:54:56.566Z,12.37
2023-05-15T23:57:23.949Z,12.50
2023-05-15T23:59:51.359Z,13.70
